createdAt,value
2017-05-15T00:00:45.787Z,21.07
2017-05-15T00:01:55.738Z,21.07
2017-05-15T00:03:05.375Z,21.06
2017-05-15T00:04:15.640Z,21.01
2017-05-15T00:05:25.902Z,21.09
2017-05-15T00:06:35.862Z,21.07
2017-05-15T00:07:45.940Z,21.03
2017-05-15T00:08:55.890Z,21.1
2017-05-15T00:10:05.531Z,21.07
2017-05-15T00:11:15.486Z,21.06
2017-05-15T00:12:25.750Z,21.04
2017-05-15T00:13:36.017Z,21.07
2017-05-15T00:14:45.972Z,21.04
2017-05-15T00:15:55.927Z,21.06
2017-05-15T00:17:05.883Z,21.09
2017-05-15T00:18:16.149Z,21.06
2017-05-15T00:19:26.103Z,21.07
2017-05-15T00:20:36.370Z,21.09
2017-05-15T00:21:46.641Z,21.07
2017-05-15T00:22:56.914Z,21.09
2017-05-15T00:24:06.881Z,21.07
2017-05-15T00:25:16.844Z,21.04
2017-05-15T00:26:27.117Z,21.07
2017-05-15T00:27:37.068Z,21.12
2017-05-15T00:28:47.061Z,21.06
2017-05-15T00:29:57.013Z,21.06
2017-05-15T00:31:07.284Z,21.07
2017-05-15T00:32:16.601Z,21.06
2017-05-15T00:33:26.252Z,21.04
2017-05-15T00:34:36.521Z,21.07
2017-05-15T00:35:46.791Z,21.06
2017-05-15T00:36:57.055Z,21.09
2017-05-15T00:38:07.316Z,21.03
2017-05-15T00:39:17.585Z,21.01
2017-05-15T00:40:27.547Z,21.06
2017-05-15T00:41:36.875Z,21.12
2017-05-15T00:42:46.824Z,21.03
2017-05-15T00:43:56.779Z,21.01
2017-05-15T00:45:07.043Z,20.99
2017-05-15T00:46:16.677Z,20.97
2017-05-15T00:47:26.947Z,21.04
2017-05-15T00:48:37.220Z,21.01
2017-05-15T00:49:47.481Z,21.04
2017-05-15T00:50:57.810Z,21.03
2017-05-15T00:52:07.448Z,21.07
2017-05-15T00:53:17.716Z,20.99
2017-05-15T00:54:27.988Z,20.98
2017-05-15T00:55:38.263Z,20.98
2017-05-15T00:56:48.596Z,21.03
2017-05-15T00:57:58.866Z,21.01
2017-05-15T00:59:08.818Z,20.97
2017-05-15T01:00:18.775Z,20.95
2017-05-15T01:01:29.036Z,21.04
2017-05-15T01:02:38.984Z,20.97
2017-05-15T01:03:49.254Z,20.99
2017-05-15T01:04:59.210Z,20.95
2017-05-15T01:06:08.524Z,20.92
2017-05-15T01:07:18.786Z,20.95
2017-05-15T01:08:28.773Z,21.01
2017-05-15T01:09:38.731Z,20.92
2017-05-15T01:10:48.996Z,21.04
2017-05-15T01:11:59.267Z,20.97
2017-05-15T01:13:09.536Z,21.09
2017-05-15T01:14:19.496Z,20.97
2017-05-15T01:15:29.136Z,21.04
2017-05-15T01:16:39.453Z,20.95
2017-05-15T01:17:49.720Z,20.97
2017-05-15T01:18:59.994Z,20.99
2017-05-15T01:20:09.939Z,21.03
2017-05-15T01:21:20.210Z,21.01
2017-05-15T01:22:30.476Z,20.97
2017-05-15T01:23:40.435Z,20.95
2017-05-15T01:24:50.715Z,20.92
2017-05-15T01:26:00.710Z,20.98
2017-05-15T01:27:10.351Z,20.95
2017-05-15T01:28:20.300Z,21.03
2017-05-15T01:29:29.934Z,20.95
2017-05-15T01:30:39.578Z,20.95
2017-05-15T01:31:49.894Z,20.94
2017-05-15T01:32:59.216Z,20.95
2017-05-15T01:34:09.479Z,20.97
2017-05-15T01:35:19.744Z,20.97
2017-05-15T01:36:29.700Z,20.98
2017-05-15T01:37:39.649Z,21.01
2017-05-15T01:38:49.975Z,20.95
2017-05-15T01:39:59.928Z,20.92
2017-05-15T01:41:09.886Z,21.01
2017-05-15T01:42:20.152Z,20.99
2017-05-15T01:43:29.475Z,21.06
2017-05-15T01:44:39.437Z,20.95
2017-05-15T01:45:49.700Z,20.92
2017-05-15T01:46:59.027Z,20.97
2017-05-15T01:48:09.290Z,20.98
2017-05-15T01:49:19.245Z,20.95
2017-05-15T01:50:29.506Z,20.99
2017-05-15T01:51:39.456Z,21.04
2017-05-15T01:52:49.406Z,21.01
2017-05-15T01:53:59.360Z,20.98
2017-05-15T01:55:09.638Z,20.97
2017-05-15T01:56:19.280Z,21.03
2017-05-15T01:57:29.231Z,20.92
2017-05-15T01:58:39.495Z,20.97
2017-05-15T01:59:49.771Z,21.01
2017-05-15T02:01:00.039Z,21.03
2017-05-15T02:02:10.306Z,20.95
2017-05-15T02:03:19.958Z,20.91
2017-05-15T02:04:30.231Z,20.97
2017-05-15T02:05:40.184Z,20.94
2017-05-15T02:06:50.132Z,21.01
2017-05-15T02:08:00.087Z,21.01
2017-05-15T02:09:09.724Z,20.99
2017-05-15T02:10:19.678Z,20.98
2017-05-15T02:11:29.942Z,21.06
2017-05-15T02:12:39.907Z,20.97
2017-05-15T02:13:49.857Z,21.01
2017-05-15T02:14:59.828Z,20.97
2017-05-15T02:16:10.105Z,21.01
2017-05-15T02:17:20.061Z,20.91
2017-05-15T02:18:30.331Z,20.97
2017-05-15T02:19:40.286Z,20.97
2017-05-15T02:20:50.240Z,20.97
2017-05-15T02:22:00.505Z,20.98
2017-05-15T02:23:10.204Z,20.97
2017-05-15T02:24:20.472Z,20.94
2017-05-15T02:25:30.431Z,20.97
2017-05-15T02:26:40.387Z,20.97
2017-05-15T02:27:50.867Z,21.01
2017-05-15T02:29:01.345Z,20.94
2017-05-15T02:30:11.611Z,20.97
2017-05-15T02:31:21.766Z,20.95
2017-05-15T02:32:31.713Z,20.99
2017-05-15T02:33:41.660Z,20.98
2017-05-15T02:34:51.303Z,20.98
2017-05-15T02:36:01.614Z,20.95
2017-05-15T02:37:11.566Z,20.97
2017-05-15T02:38:21.844Z,20.99
2017-05-15T02:39:31.798Z,20.97
2017-05-15T02:40:42.075Z,20.94
2017-05-15T02:41:51.722Z,20.94
2017-05-15T02:43:02.004Z,20.97
2017-05-15T02:44:11.961Z,20.92
2017-05-15T02:45:22.227Z,21.01
2017-05-15T02:46:32.982Z,20.94
2017-05-15T02:47:42.932Z,20.95
2017-05-15T02:48:52.579Z,20.95
2017-05-15T02:50:02.836Z,20.94
2017-05-15T02:51:12.468Z,20.94
2017-05-15T02:52:22.736Z,20.97
2017-05-15T02:53:32.694Z,20.97
2017-05-15T02:54:42.350Z,20.95
2017-05-15T02:55:51.998Z,20.91
2017-05-15T02:57:01.951Z,20.94
2017-05-15T02:58:11.906Z,20.99
2017-05-15T02:59:22.174Z,21.04
2017-05-15T03:00:32.443Z,20.97
2017-05-15T03:01:42.413Z,20.97
2017-05-15T03:02:52.055Z,20.99
2017-05-15T03:04:02.328Z,21.01
2017-05-15T03:05:12.588Z,20.97
2017-05-15T03:06:22.854Z,20.92
2017-05-15T03:07:33.127Z,20.94
2017-05-15T03:08:43.400Z,20.99
2017-05-15T03:09:53.680Z,20.92
2017-05-15T03:11:03.953Z,20.97
2017-05-15T03:12:13.908Z,20.92
2017-05-15T03:13:23.541Z,20.98
2017-05-15T03:14:33.499Z,20.99
2017-05-15T03:15:43.446Z,21.01
2017-05-15T03:16:53.711Z,21.06
2017-05-15T03:18:03.350Z,21.09
2017-05-15T03:19:13.304Z,20.98
2017-05-15T03:20:22.962Z,20.99
2017-05-15T03:21:32.279Z,21.01
2017-05-15T03:22:42.549Z,21.09
2017-05-15T03:23:52.504Z,21.04
2017-05-15T03:25:02.772Z,20.99
2017-05-15T03:26:13.049Z,20.97
2017-05-15T03:27:23.006Z,20.99
2017-05-15T03:28:33.276Z,20.92
2017-05-15T03:29:43.223Z,20.99
2017-05-15T03:30:53.489Z,21.06
2017-05-15T03:32:03.752Z,20.95
2017-05-15T03:33:13.072Z,21.01
2017-05-15T03:34:23.354Z,20.95
2017-05-15T03:35:32.998Z,20.95
2017-05-15T03:36:42.636Z,20.97
2017-05-15T03:37:52.898Z,20.92
2017-05-15T03:39:02.846Z,20.92
2017-05-15T03:40:12.799Z,20.95
2017-05-15T03:41:23.075Z,21.03
2017-05-15T03:42:33.344Z,21.01
2017-05-15T03:43:43.296Z,21.09
2017-05-15T03:44:53.569Z,21.04
2017-05-15T03:46:03.533Z,21.03
2017-05-15T03:47:13.798Z,21.1
2017-05-15T03:48:23.438Z,21.06
2017-05-15T03:49:33.706Z,21.01
2017-05-15T03:50:43.975Z,21.04
2017-05-15T03:51:53.939Z,20.97
2017-05-15T03:53:03.887Z,20.98
2017-05-15T03:54:13.850Z,21.03
2017-05-15T03:55:24.120Z,20.95
2017-05-15T03:56:34.388Z,20.98
2017-05-15T03:57:44.655Z,21.04
2017-05-15T03:58:54.918Z,21.01
2017-05-15T04:00:04.871Z,21.06
2017-05-15T04:01:14.821Z,20.97
2017-05-15T04:02:25.087Z,21.07
2017-05-15T04:03:35.089Z,21.01
2017-05-15T04:04:45.041Z,20.94
2017-05-15T04:05:55.305Z,21.07
2017-05-15T04:07:05.262Z,21.01
2017-05-15T04:08:15.567Z,20.99
2017-05-15T04:09:25.527Z,21.03
2017-05-15T04:10:35.792Z,20.99
2017-05-15T04:11:45.751Z,21.03
2017-05-15T04:12:55.706Z,21.03
2017-05-15T04:14:05.967Z,21.03
2017-05-15T04:15:16.234Z,20.98
2017-05-15T04:16:26.552Z,20.99
2017-05-15T04:17:36.192Z,21.04
2017-05-15T04:18:46.488Z,20.95
2017-05-15T04:19:56.774Z,21.01
2017-05-15T04:21:07.045Z,21.04
2017-05-15T04:22:17.305Z,21.03
2017-05-15T04:23:27.577Z,21.06
2017-05-15T04:24:37.538Z,21.04
2017-05-15T04:25:47.805Z,20.95
2017-05-15T04:26:58.082Z,20.98
2017-05-15T04:28:08.348Z,21.04
2017-05-15T04:29:17.982Z,21.01
2017-05-15T04:30:28.254Z,21.01
2017-05-15T04:31:38.205Z,20.92
2017-05-15T04:32:48.163Z,21.03
2017-05-15T04:33:58.437Z,20.99
2017-05-15T04:35:08.395Z,21.03
2017-05-15T04:36:18.658Z,21.09
2017-05-15T04:37:28.929Z,20.95
2017-05-15T04:38:38.883Z,20.99
2017-05-15T04:39:49.155Z,20.94
2017-05-15T04:40:59.423Z,20.98
2017-05-15T04:42:08.748Z,21.01
2017-05-15T04:43:18.710Z,21.09
2017-05-15T04:44:28.987Z,21.01
2017-05-15T04:45:39.247Z,21.06
2017-05-15T04:46:49.515Z,21.04
2017-05-15T04:47:59.161Z,20.99
2017-05-15T04:49:09.173Z,21.03
2017-05-15T04:50:19.126Z,20.98
2017-05-15T04:51:29.075Z,21.03
2017-05-15T04:52:39.345Z,21.06
2017-05-15T04:53:49.611Z,21.09
2017-05-15T04:54:59.562Z,21.07
2017-05-15T04:56:08.886Z,21.06
2017-05-15T04:57:18.529Z,21.03
2017-05-15T04:58:28.495Z,21.03
2017-05-15T04:59:38.141Z,20.99
2017-05-15T05:00:48.411Z,20.95
2017-05-15T05:01:58.674Z,21.04
2017-05-15T05:03:08.312Z,21.03
2017-05-15T05:04:18.282Z,21.06
2017-05-15T05:05:28.550Z,21.03
2017-05-15T05:06:38.498Z,21.1
2017-05-15T05:07:48.446Z,21.03
2017-05-15T05:08:58.776Z,21.01
2017-05-15T05:10:09.049Z,21.09
2017-05-15T05:11:18.689Z,21.07
2017-05-15T05:12:28.639Z,20.99
2017-05-15T05:13:38.271Z,21.01
2017-05-15T05:14:48.543Z,21.03
2017-05-15T05:15:58.808Z,21.04
2017-05-15T05:17:09.127Z,20.98
2017-05-15T05:18:18.763Z,21.07
2017-05-15T05:19:28.417Z,21.07
2017-05-15T05:20:38.423Z,20.98
2017-05-15T05:21:48.394Z,20.95
2017-05-15T05:22:58.656Z,21.01
2017-05-15T05:24:08.298Z,21.03
2017-05-15T05:25:18.254Z,21.1
2017-05-15T05:26:27.890Z,21.04
2017-05-15T05:27:37.531Z,21.04
2017-05-15T05:28:47.798Z,21.03
2017-05-15T05:29:58.065Z,21.04
2017-05-15T05:31:07.703Z,21.03
2017-05-15T05:32:17.658Z,21.06
2017-05-15T05:33:27.937Z,21.04
2017-05-15T05:34:38.202Z,21.04
2017-05-15T05:35:48.153Z,21.12
2017-05-15T05:36:58.420Z,21.07
2017-05-15T05:38:08.367Z,21.06
2017-05-15T05:39:17.700Z,21.12
2017-05-15T05:40:27.986Z,21.07
2017-05-15T05:41:37.941Z,21.13
2017-05-15T05:42:48.207Z,21.09
2017-05-15T05:43:58.162Z,21.04
2017-05-15T05:45:08.116Z,21.12
2017-05-15T05:46:17.752Z,21.09
2017-05-15T05:47:28.039Z,21.13
2017-05-15T05:48:37.989Z,21.09
2017-05-15T05:49:48.258Z,21.14
2017-05-15T05:50:58.215Z,21.1
2017-05-15T05:52:08.172Z,21.12
2017-05-15T05:53:18.438Z,21.1
2017-05-15T05:54:28.712Z,21.09
2017-05-15T05:55:38.353Z,21.1
2017-05-15T05:56:48.307Z,21.09
2017-05-15T05:57:58.568Z,21.06
2017-05-15T05:59:08.529Z,21.07
2017-05-15T06:00:18.799Z,21.09
2017-05-15T06:01:29.067Z,21.06
2017-05-15T06:02:39.020Z,21.09
2017-05-15T06:03:49.292Z,21.12
2017-05-15T06:04:59.244Z,21.07
2017-05-15T06:06:09.194Z,21.06
2017-05-15T06:07:19.139Z,21.12
2017-05-15T06:08:29.413Z,21.03
2017-05-15T06:09:39.055Z,21.06
2017-05-15T06:10:49.323Z,21.06
2017-05-15T06:11:59.276Z,21.06
2017-05-15T06:13:09.546Z,21.1
2017-05-15T06:14:18.862Z,21.03
2017-05-15T06:15:28.495Z,21.07
2017-05-15T06:16:38.446Z,20.99
2017-05-15T06:17:48.086Z,21.04
2017-05-15T06:18:57.729Z,21.09
2017-05-15T06:20:07.676Z,21.1
2017-05-15T06:21:17.938Z,21.06
2017-05-15T06:22:27.891Z,21.09
2017-05-15T06:23:38.168Z,21.1
2017-05-15T06:24:48.119Z,21.12
2017-05-15T06:25:58.099Z,21.12
2017-05-15T06:27:08.368Z,21.07
2017-05-15T06:28:18.012Z,21.12
2017-05-15T06:29:28.280Z,21.1
2017-05-15T06:30:37.930Z,21.09
2017-05-15T06:31:48.197Z,21.07
2017-05-15T06:32:58.150Z,21.19
2017-05-15T06:34:08.108Z,21.21
2017-05-15T06:35:18.063Z,21.22
2017-05-15T06:36:28.063Z,21.24
2017-05-15T06:37:37.697Z,21.29
2017-05-15T06:38:47.382Z,21.27
2017-05-15T06:39:57.657Z,21.24
2017-05-15T06:41:07.301Z,21.22
2017-05-15T06:42:17.564Z,21.22
2017-05-15T06:43:27.832Z,21.32
2017-05-15T06:44:38.094Z,21.25
2017-05-15T06:45:48.357Z,21.34
2017-05-15T06:46:58.005Z,21.25
2017-05-15T06:48:07.955Z,21.37
2017-05-15T06:49:16.965Z,21.32
2017-05-15T06:50:27.282Z,21.37
2017-05-15T06:51:37.547Z,21.28
2017-05-15T06:52:47.177Z,21.4
2017-05-15T06:53:57.447Z,21.35
2017-05-15T06:55:07.137Z,21.37
2017-05-15T06:56:17.403Z,21.37
2017-05-15T06:57:27.702Z,21.32
2017-05-15T06:58:37.650Z,21.43
2017-05-15T06:59:47.617Z,21.4
2017-05-15T07:00:57.880Z,21.29
2017-05-15T07:02:07.529Z,21.31
2017-05-15T07:03:17.477Z,21.35
2017-05-15T07:04:27.746Z,21.35
2017-05-15T07:05:38.010Z,21.4
2017-05-15T07:06:47.968Z,21.31
2017-05-15T07:07:57.923Z,21.34
2017-05-15T07:09:07.872Z,21.34
2017-05-15T07:10:18.139Z,21.43
2017-05-15T07:11:28.424Z,21.35
2017-05-15T07:12:38.060Z,21.37
2017-05-15T07:13:48.317Z,21.44
2017-05-15T07:14:58.584Z,21.49
2017-05-15T07:16:08.534Z,21.35
2017-05-15T07:17:18.487Z,21.37
2017-05-15T07:18:28.752Z,21.47
2017-05-15T07:19:38.386Z,21.43
2017-05-15T07:20:48.351Z,21.43
2017-05-15T07:21:58.619Z,21.44
2017-05-15T07:23:08.938Z,21.49
2017-05-15T07:24:18.573Z,21.49
2017-05-15T07:25:28.531Z,21.43
2017-05-15T07:26:38.160Z,21.47
2017-05-15T07:27:48.109Z,21.44
2017-05-15T07:28:58.377Z,21.43
2017-05-15T07:30:08.328Z,21.52
2017-05-15T07:31:18.277Z,21.44
2017-05-15T07:32:28.553Z,21.44
2017-05-15T07:33:38.523Z,21.47
2017-05-15T07:34:48.472Z,21.37
2017-05-15T07:35:58.741Z,21.54
2017-05-15T07:37:09.007Z,21.46
2017-05-15T07:38:18.963Z,21.37
2017-05-15T07:39:28.599Z,21.38
2017-05-15T07:40:38.541Z,21.32
2017-05-15T07:41:48.803Z,21.35
2017-05-15T07:42:59.071Z,21.42
2017-05-15T07:44:09.337Z,21.42
2017-05-15T07:45:19.625Z,21.46
2017-05-15T07:46:29.893Z,21.38
2017-05-15T07:47:39.849Z,21.34
2017-05-15T07:48:49.799Z,21.37
2017-05-15T07:49:59.767Z,21.37
2017-05-15T07:51:09.401Z,21.32
2017-05-15T07:52:19.669Z,21.43
2017-05-15T07:53:29.940Z,21.31
2017-05-15T07:54:39.893Z,21.37
2017-05-15T07:55:50.151Z,21.31
2017-05-15T07:57:00.411Z,21.32
2017-05-15T07:58:10.054Z,21.28
2017-05-15T07:59:20.327Z,21.37
2017-05-15T08:00:30.275Z,21.34
2017-05-15T08:01:39.596Z,21.34
2017-05-15T08:02:49.548Z,21.35
2017-05-15T08:03:59.818Z,21.43
2017-05-15T08:05:09.767Z,21.35
2017-05-15T08:06:19.720Z,21.46
2017-05-15T08:07:30.029Z,21.43
2017-05-15T08:08:39.983Z,21.37
2017-05-15T08:09:50.246Z,21.37
2017-05-15T08:11:00.518Z,21.38
2017-05-15T08:12:10.468Z,21.34
2017-05-15T08:13:20.434Z,21.38
2017-05-15T08:14:30.076Z,21.34
2017-05-15T08:15:39.713Z,21.25
2017-05-15T08:16:49.664Z,21.31
2017-05-15T08:17:59.602Z,21.35
2017-05-15T08:19:09.252Z,21.28
2017-05-15T08:20:19.203Z,21.28
2017-05-15T08:21:29.152Z,21.37
2017-05-15T08:22:38.814Z,21.32
2017-05-15T08:23:49.090Z,21.28
2017-05-15T08:24:59.364Z,21.35
2017-05-15T08:26:09.630Z,21.28
2017-05-15T08:27:19.894Z,21.34
2017-05-15T08:28:29.851Z,21.27
2017-05-15T08:29:39.836Z,21.35
2017-05-15T08:30:49.790Z,21.4
2017-05-15T08:31:59.741Z,21.27
2017-05-15T08:33:09.692Z,21.38
2017-05-15T08:34:19.650Z,21.42
2017-05-15T08:35:29.655Z,21.4
2017-05-15T08:36:38.977Z,21.43
2017-05-15T08:37:49.242Z,21.38
2017-05-15T08:38:59.513Z,21.27
2017-05-15T08:40:08.838Z,21.38
2017-05-15T08:41:18.787Z,21.43
2017-05-15T08:42:29.055Z,21.38
2017-05-15T08:43:38.691Z,21.4
2017-05-15T08:44:48.962Z,21.37
2017-05-15T08:45:58.949Z,21.42
2017-05-15T08:47:09.240Z,21.46
2017-05-15T08:48:19.513Z,21.37
2017-05-15T08:49:28.841Z,21.27
2017-05-15T08:50:38.478Z,21.37
2017-05-15T08:51:48.437Z,21.44
2017-05-15T08:52:58.389Z,21.34
2017-05-15T08:54:08.344Z,21.38
2017-05-15T08:55:18.295Z,21.43
2017-05-15T08:56:28.242Z,21.37
2017-05-15T08:57:38.190Z,21.4
2017-05-15T08:58:48.143Z,21.46
2017-05-15T08:59:57.786Z,21.37
2017-05-15T09:01:07.742Z,21.43
2017-05-15T09:02:18.008Z,21.43
2017-05-15T09:03:27.984Z,21.44
2017-05-15T09:04:37.942Z,21.4
2017-05-15T09:05:47.897Z,21.42
2017-05-15T09:06:58.163Z,21.38
2017-05-15T09:08:08.429Z,21.27
2017-05-15T09:09:18.382Z,21.35
2017-05-15T09:10:27.708Z,21.37
2017-05-15T09:11:37.343Z,21.44
2017-05-15T09:12:47.027Z,21.4
2017-05-15T09:13:57.299Z,21.44
2017-05-15T09:15:07.261Z,21.4
2017-05-15T09:16:16.900Z,21.4
2017-05-15T09:17:26.542Z,21.32
2017-05-15T09:18:36.174Z,21.34
2017-05-15T09:19:46.128Z,21.38
2017-05-15T09:20:56.395Z,21.49
2017-05-15T09:22:06.693Z,21.44
2017-05-15T09:23:16.329Z,21.43
2017-05-15T09:24:26.607Z,21.35
2017-05-15T09:25:36.870Z,21.38
2017-05-15T09:26:47.136Z,21.34
2017-05-15T09:27:57.408Z,21.37
2017-05-15T09:29:07.370Z,21.4
2017-05-15T09:30:17.636Z,21.37
2017-05-15T09:31:27.903Z,21.21
2017-05-15T09:32:37.542Z,21.07
2017-05-15T09:33:47.808Z,20.95
2017-05-15T09:34:58.085Z,20.99
2017-05-15T09:36:08.044Z,20.89
2017-05-15T09:37:18.309Z,20.94
2017-05-15T09:38:28.579Z,20.85
2017-05-15T09:39:38.218Z,20.76
2017-05-15T09:40:48.173Z,20.77
2017-05-15T09:41:58.127Z,20.79
2017-05-15T09:43:08.393Z,20.74
2017-05-15T09:44:18.369Z,20.76
2017-05-15T09:45:28.005Z,20.77
2017-05-15T09:46:38.274Z,20.76
2017-05-15T09:47:47.919Z,20.77
2017-05-15T09:48:57.914Z,20.76
2017-05-15T09:50:07.872Z,20.79
2017-05-15T09:51:17.829Z,20.77
2017-05-15T09:52:27.785Z,20.77
2017-05-15T09:53:38.045Z,20.77
2017-05-15T09:54:48.319Z,20.72
2017-05-15T09:55:57.648Z,20.69
2017-05-15T09:57:07.594Z,20.74
2017-05-15T09:58:17.864Z,20.79
2017-05-15T09:59:27.506Z,20.72
2017-05-15T10:00:37.460Z,20.67
2017-05-15T10:01:46.782Z,20.82
2017-05-15T10:02:56.442Z,20.82
2017-05-15T10:04:06.716Z,20.74
2017-05-15T10:05:16.354Z,20.8
2017-05-15T10:06:25.992Z,20.74
2017-05-15T10:07:35.943Z,20.74
2017-05-15T10:08:45.894Z,20.73
2017-05-15T10:09:55.533Z,20.72
2017-05-15T10:11:05.486Z,20.77
2017-05-15T10:12:15.436Z,20.73
2017-05-15T10:13:25.708Z,20.7
2017-05-15T10:14:35.966Z,20.74
2017-05-15T10:15:45.289Z,20.73
2017-05-15T10:16:55.239Z,20.62
2017-05-15T10:18:05.190Z,20.72
2017-05-15T10:19:15.144Z,20.7
2017-05-15T10:20:25.414Z,20.72
2017-05-15T10:21:35.733Z,20.74
2017-05-15T10:22:45.687Z,20.64
2017-05-15T10:23:55.318Z,20.58
2017-05-15T10:25:05.289Z,20.57
2017-05-15T10:26:15.237Z,20.73
2017-05-15T10:27:25.184Z,20.76
2017-05-15T10:28:35.448Z,20.7
2017-05-15T10:29:45.722Z,20.73
2017-05-15T10:30:55.993Z,20.66
2017-05-15T10:32:05.950Z,20.74
2017-05-15T10:33:15.583Z,20.58
2017-05-15T10:34:25.541Z,20.58
2017-05-15T10:35:35.809Z,20.62
2017-05-15T10:36:46.075Z,20.73
2017-05-15T10:37:56.088Z,20.74
2017-05-15T10:39:05.731Z,20.74
2017-05-15T10:40:15.998Z,20.73
2017-05-15T10:41:25.324Z,20.79
2017-05-15T10:42:35.271Z,20.73
2017-05-15T10:43:45.232Z,20.62
2017-05-15T10:44:54.869Z,20.74
2017-05-15T10:46:05.135Z,20.76
2017-05-15T10:47:15.394Z,20.8
2017-05-15T10:48:25.357Z,20.79
2017-05-15T10:49:34.998Z,20.77
2017-05-15T10:50:44.641Z,20.89
2017-05-15T10:51:54.907Z,20.8
2017-05-15T10:53:04.597Z,20.98
2017-05-15T10:54:14.547Z,20.92
2017-05-15T10:55:24.810Z,20.92
2017-05-15T10:56:34.764Z,21.03
2017-05-15T10:57:45.096Z,21.06
2017-05-15T10:58:55.049Z,20.98
2017-05-15T11:00:04.689Z,21.06
2017-05-15T11:01:14.323Z,21.09
2017-05-15T11:02:24.272Z,20.97
2017-05-15T11:03:34.222Z,20.92
2017-05-15T11:04:44.491Z,21.03
2017-05-15T11:05:54.762Z,21.04
2017-05-15T11:07:04.718Z,21.09
2017-05-15T11:08:14.665Z,21.12
2017-05-15T11:09:24.622Z,21.07
2017-05-15T11:10:34.574Z,21.1
2017-05-15T11:11:44.841Z,21.09
2017-05-15T11:12:55.126Z,21.03
2017-05-15T11:14:05.392Z,21.07
2017-05-15T11:15:15.343Z,21.22
2017-05-15T11:16:24.979Z,21.25
2017-05-15T11:17:34.930Z,21.22
2017-05-15T11:18:44.890Z,21.06
2017-05-15T11:19:54.852Z,21.04
2017-05-15T11:21:05.115Z,21.09
2017-05-15T11:22:15.068Z,20.99
2017-05-15T11:23:24.393Z,20.98
2017-05-15T11:24:34.342Z,20.92
2017-05-15T11:25:43.976Z,20.92
2017-05-15T11:26:53.611Z,20.95
2017-05-15T11:28:03.561Z,20.92
2017-05-15T11:29:13.822Z,20.95
2017-05-15T11:30:24.090Z,20.98
2017-05-15T11:31:34.354Z,20.98
2017-05-15T11:32:44.306Z,20.97
2017-05-15T11:33:54.571Z,21.03
2017-05-15T11:35:04.845Z,20.98
2017-05-15T11:36:15.114Z,20.97
2017-05-15T11:37:25.062Z,20.97
2017-05-15T11:38:35.029Z,20.89
2017-05-15T11:39:45.307Z,20.91
2017-05-15T11:40:55.258Z,20.89
2017-05-15T11:42:04.893Z,20.92
2017-05-15T11:43:14.847Z,20.88
2017-05-15T11:44:25.112Z,20.84
2017-05-15T11:45:34.751Z,20.77
2017-05-15T11:46:44.391Z,20.8
2017-05-15T11:47:54.033Z,20.74
2017-05-15T11:49:04.297Z,20.8
2017-05-15T11:50:13.626Z,20.82
2017-05-15T11:51:23.279Z,20.82
2017-05-15T11:52:33.532Z,20.72
2017-05-15T11:53:43.792Z,20.72
2017-05-15T11:54:54.064Z,20.72
2017-05-15T11:56:04.336Z,20.74
2017-05-15T11:57:14.281Z,20.76
2017-05-15T11:58:24.239Z,20.8
2017-05-15T11:59:34.191Z,20.84
2017-05-15T12:00:44.456Z,20.89
2017-05-15T12:01:54.405Z,20.8
2017-05-15T12:03:04.364Z,20.73
2017-05-15T12:04:14.315Z,20.74
2017-05-15T12:05:24.264Z,20.74
2017-05-15T12:06:34.219Z,20.85
2017-05-15T12:07:44.174Z,20.84
2017-05-15T12:08:53.803Z,20.77
2017-05-15T12:10:03.761Z,20.85
2017-05-15T12:11:14.037Z,20.85
2017-05-15T12:12:24.304Z,20.8
2017-05-15T12:13:34.571Z,20.79
2017-05-15T12:14:44.521Z,20.72
2017-05-15T12:15:54.781Z,20.73
2017-05-15T12:17:05.049Z,20.73
2017-05-15T12:18:14.687Z,20.79
2017-05-15T12:19:24.322Z,20.79
2017-05-15T12:20:34.596Z,20.74
2017-05-15T12:21:44.548Z,20.73
2017-05-15T12:22:54.183Z,20.77
2017-05-15T12:24:04.458Z,20.79
2017-05-15T12:25:14.402Z,20.77
2017-05-15T12:26:24.355Z,20.74
2017-05-15T12:27:34.313Z,20.7
2017-05-15T12:28:44.270Z,20.64
2017-05-15T12:29:54.536Z,20.74
2017-05-15T12:31:04.797Z,20.79
2017-05-15T12:32:14.430Z,20.76
2017-05-15T12:33:24.378Z,20.8
2017-05-15T12:34:34.641Z,20.76
2017-05-15T12:35:44.268Z,20.73
2017-05-15T12:36:54.237Z,20.84
2017-05-15T12:38:03.879Z,20.76
2017-05-15T12:39:13.833Z,20.74
2017-05-15T12:40:23.776Z,20.74
2017-05-15T12:41:33.729Z,20.82
2017-05-15T12:42:44.049Z,20.74
2017-05-15T12:43:54.308Z,20.82
2017-05-15T12:45:03.953Z,20.8
2017-05-15T12:46:13.900Z,20.8
2017-05-15T12:47:23.853Z,20.85
2017-05-15T12:48:33.802Z,20.8
2017-05-15T12:49:44.071Z,20.82
2017-05-15T12:50:54.020Z,20.8
2017-05-15T12:52:04.287Z,20.92
2017-05-15T12:53:13.924Z,20.89
2017-05-15T12:54:23.567Z,20.98
2017-05-15T12:55:33.521Z,20.88
2017-05-15T12:56:43.512Z,20.92
2017-05-15T12:57:53.783Z,20.92
2017-05-15T12:59:03.414Z,20.87
2017-05-15T13:00:13.363Z,20.84
2017-05-15T13:01:23.627Z,20.87
2017-05-15T13:02:33.903Z,20.87
2017-05-15T13:03:43.850Z,20.97
2017-05-15T13:04:54.117Z,20.92
2017-05-15T13:06:04.385Z,21.01
2017-05-15T13:07:14.340Z,21.03
2017-05-15T13:08:24.286Z,20.99
2017-05-15T13:09:34.246Z,20.99
2017-05-15T13:10:44.519Z,21.07
2017-05-15T13:11:54.781Z,21.1
2017-05-15T13:13:05.043Z,21.09
2017-05-15T13:14:14.987Z,21.07
2017-05-15T13:15:24.934Z,21.07
2017-05-15T13:16:35.200Z,21.09
2017-05-15T13:17:45.469Z,21.1
2017-05-15T13:18:55.448Z,21.09
2017-05-15T13:20:05.397Z,21.07
2017-05-15T13:21:15.033Z,21.07
2017-05-15T13:22:24.985Z,21.12
2017-05-15T13:23:34.622Z,21.06
2017-05-15T13:24:44.579Z,21.1
2017-05-15T13:25:54.213Z,21.06
2017-05-15T13:27:04.205Z,21.12
2017-05-15T13:28:13.842Z,21.06
2017-05-15T13:29:23.795Z,21.12
2017-05-15T13:30:33.748Z,21.14
2017-05-15T13:31:44.013Z,21.1
2017-05-15T13:32:54.278Z,21.09
2017-05-15T13:34:04.229Z,21.09
2017-05-15T13:35:14.495Z,21.09
2017-05-15T13:36:24.438Z,21.07
2017-05-15T13:37:34.706Z,21.09
2017-05-15T13:38:44.650Z,21.12
2017-05-15T13:39:54.605Z,21.1
2017-05-15T13:41:04.242Z,21.09
2017-05-15T13:42:14.510Z,21.09
2017-05-15T13:43:24.460Z,21.06
2017-05-15T13:44:34.101Z,21.13
2017-05-15T13:45:43.428Z,21.13
2017-05-15T13:46:53.398Z,21.14
2017-05-15T13:48:03.671Z,21.14
2017-05-15T13:49:13.622Z,21.03
2017-05-15T13:50:23.881Z,21.12
2017-05-15T13:51:33.842Z,21.14
2017-05-15T13:52:44.110Z,21.16
2017-05-15T13:53:53.430Z,21.12
2017-05-15T13:55:03.698Z,21.09
2017-05-15T13:56:13.646Z,21.1
2017-05-15T13:57:23.593Z,21.16
2017-05-15T13:58:33.233Z,21.1
2017-05-15T13:59:43.491Z,21.1
2017-05-15T14:00:53.752Z,21.09
2017-05-15T14:02:04.015Z,21.17
2017-05-15T14:03:13.961Z,21.19
2017-05-15T14:04:24.239Z,21.1
2017-05-15T14:05:34.192Z,21.12
2017-05-15T14:06:44.461Z,21.04
2017-05-15T14:07:54.727Z,21.09
2017-05-15T14:09:04.682Z,21.21
2017-05-15T14:10:14.320Z,21.21
2017-05-15T14:11:24.589Z,21.17
2017-05-15T14:12:34.591Z,21.17
2017-05-15T14:13:44.858Z,21.04
2017-05-15T14:14:54.194Z,21.14
2017-05-15T14:16:04.457Z,21.16
2017-05-15T14:17:14.419Z,21.16
2017-05-15T14:18:24.381Z,21.17
2017-05-15T14:19:34.643Z,21.21
2017-05-15T14:20:44.908Z,21.17
2017-05-15T14:21:54.551Z,21.16
2017-05-15T14:23:04.499Z,21.16
2017-05-15T14:24:14.445Z,21.12
2017-05-15T14:25:23.768Z,21.21
2017-05-15T14:26:34.033Z,21.16
2017-05-15T14:27:44.291Z,21.21
2017-05-15T14:28:54.237Z,21.17
2017-05-15T14:30:04.194Z,21.1
2017-05-15T14:31:14.461Z,21.14
2017-05-15T14:32:24.741Z,21.17
2017-05-15T14:33:34.693Z,21.17
2017-05-15T14:34:44.643Z,21.16
2017-05-15T14:35:54.598Z,21.13
2017-05-15T14:37:04.859Z,21.13
2017-05-15T14:38:14.542Z,21.16
2017-05-15T14:39:24.820Z,21.19
2017-05-15T14:40:35.084Z,21.03
2017-05-15T14:41:45.350Z,21.14
2017-05-15T14:42:55.301Z,21.21
2017-05-15T14:44:04.934Z,21.09
2017-05-15T14:45:14.273Z,21.14
2017-05-15T14:46:24.541Z,21.16
2017-05-15T14:47:34.497Z,21.21
2017-05-15T14:48:44.131Z,21.21
2017-05-15T14:49:54.088Z,21.07
2017-05-15T14:51:04.353Z,21.17
2017-05-15T14:52:14.348Z,21.14
2017-05-15T14:53:24.623Z,21.13
2017-05-15T14:54:34.583Z,21.21
2017-05-15T14:55:44.560Z,21.14
2017-05-15T14:56:54.516Z,21.22
2017-05-15T14:58:04.782Z,21.19
2017-05-15T14:59:15.046Z,21.21
2017-05-15T15:00:25.312Z,21.14
2017-05-15T15:01:35.581Z,21.22
2017-05-15T15:02:44.592Z,21.22
2017-05-15T15:03:54.547Z,21.21